Time;durP1;ratioP1;P1;durP2;ratioP2;P2;SDS_P1;SDS_P2;PMS_P1;PMS_P2;Temp;Humidity;BMP_temperature;BMP_pressure;BME280_temperature;BME280_humidity;BME280_pressure;Samples;Min_cycle;Max_cycle;Signal;HPM_P1;HPM_P2
2022/07/08 00:01:46;;;;;;;249.27;237.70;;;12.20;99.90;;;;;;5069807;28;20488;-79
2022/07/08 00:04:11;;;;;;;265.58;252.73;;;12.10;99.90;;;;;;5081277;28;20032;-79
2022/07/08 00:06:37;;;;;;;258.75;246.60;;;12.20;99.90;;;;;;5082062;28;20029;-81
2022/07/08 00:09:03;;;;;;;281.85;268.00;;;12.40;99.90;;;;;;5078778;28;20032;-79
2022/07/08 00:11:29;;;;;;;262.70;250.13;;;12.40;99.90;;;;;;5076593;28;20029;-79
2022/07/08 00:13:54;;;;;;;254.95;242.65;;;12.40;99.90;;;;;;5056794;28;20055;-79
2022/07/08 00:16:20;;;;;;;261.55;249.00;;;12.50;99.90;;;;;;5071508;28;20042;-79
2022/07/08 00:18:46;;;;;;;279.08;264.52;;;12.60;99.90;;;;;;5045540;28;20029;-85
2022/07/08 00:21:11;;;;;;;255.15;243.23;;;12.80;99.90;;;;;;5071461;28;20021;-79
2022/07/08 00:23:37;;;;;;;260.40;247.45;;;12.80;99.90;;;;;;5067651;28;20059;-79
2022/07/08 00:26:03;;;;;;;254.23;240.95;;;12.80;99.90;;;;;;5070872;28;20050;-79
2022/07/08 00:28:28;;;;;;;253.93;241.30;;;12.90;99.90;;;;;;5066953;28;20059;-79
2022/07/08 00:30:54;;;;;;;235.57;224.20;;;12.90;99.90;;;;;;5057775;28;20466;-78
2022/07/08 00:33:20;;;;;;;222.85;211.75;;;12.90;99.90;;;;;;5083501;28;20070;-79
2022/07/08 00:35:45;;;;;;;249.13;236.82;;;12.90;99.90;;;;;;5070384;28;20040;-79
2022/07/08 00:38:11;;;;;;;242.23;230.48;;;13.00;99.90;;;;;;5054375;28;20399;-79
2022/07/08 00:40:37;;;;;;;241.95;229.98;;;12.90;99.90;;;;;;5073836;28;20030;-79
2022/07/08 00:43:02;;;;;;;287.13;272.08;;;13.00;99.90;;;;;;5071784;28;20044;-80
2022/07/08 00:45:28;;;;;;;280.92;265.85;;;13.00;99.90;;;;;;5066354;28;20029;-79
2022/07/08 00:47:54;;;;;;;254.82;242.32;;;13.10;99.90;;;;;;5066683;28;20036;-79
2022/07/08 00:50:20;;;;;;;268.27;254.85;;;13.10;99.90;;;;;;5069857;28;20032;-79
2022/07/08 00:52:47;;;;;;;260.77;247.75;;;13.10;99.90;;;;;;5045646;28;20021;-79
2022/07/08 00:55:13;;;;;;;245.18;233.35;;;13.00;99.90;;;;;;5068106;28;20131;-79
2022/07/08 00:57:39;;;;;;;252.13;240.07;;;13.00;99.90;;;;;;5080748;28;20583;-79
2022/07/08 01:00:06;;;;;;;248.40;236.68;;;13.00;99.90;;;;;;5071975;28;20082;-79
2022/07/08 01:02:32;;;;;;;232.05;221.20;;;13.00;99.90;;;;;;5063592;28;20051;-78
2022/07/08 01:04:58;;;;;;;218.75;208.20;;;12.90;99.90;;;;;;5058599;28;20029;-79
2022/07/08 01:07:24;;;;;;;214.80;204.65;;;13.00;99.90;;;;;;5037554;28;20047;-80
2022/07/08 01:09:50;;;;;;;239.40;227.98;;;13.00;99.90;;;;;;5074399;28;20715;-80
2022/07/08 01:12:16;;;;;;;252.98;240.55;;;13.20;99.90;;;;;;5077214;28;20062;-80
2022/07/08 01:14:43;;;;;;;234.75;223.10;;;13.20;99.90;;;;;;5095561;28;20048;-80
2022/07/08 01:17:08;;;;;;;242.32;230.32;;;13.30;99.90;;;;;;5069810;28;20081;-79
2022/07/08 01:19:34;;;;;;;235.43;223.35;;;13.40;99.90;;;;;;5063414;28;20059;-80
2022/07/08 01:22:00;;;;;;;211.35;201.18;;;13.30;99.90;;;;;;5049900;28;20066;-79
2022/07/08 01:24:25;;;;;;;217.60;207.15;;;13.20;99.90;;;;;;5085387;28;20060;-79
2022/07/08 01:26:52;;;;;;;251.95;239.05;;;13.20;99.90;;;;;;5076101;28;20016;-79
2022/07/08 01:29:17;;;;;;;244.73;232.30;;;13.30;99.90;;;;;;5082093;28;20028;-81
2022/07/08 01:31:43;;;;;;;235.10;223.82;;;13.30;99.90;;;;;;5076529;28;20036;-79
2022/07/08 01:34:09;;;;;;;223.55;212.27;;;13.30;99.90;;;;;;5060571;28;20035;-79
2022/07/08 01:36:34;;;;;;;227.77;215.95;;;13.40;99.90;;;;;;5074802;28;20028;-79
2022/07/08 01:39:00;;;;;;;228.07;216.88;;;13.40;99.90;;;;;;5078697;28;20032;-79
2022/07/08 01:41:26;;;;;;;232.05;220.32;;;13.40;99.90;;;;;;5072458;28;20024;-79
2022/07/08 01:43:51;;;;;;;242.00;229.25;;;13.40;99.90;;;;;;5076442;28;20028;-80
2022/07/08 01:46:17;;;;;;;227.65;216.55;;;13.40;99.90;;;;;;5067570;28;20027;-79
2022/07/08 01:48:42;;;;;;;230.02;218.88;;;13.40;99.90;;;;;;5037122;28;20399;-79
2022/07/08 01:51:08;;;;;;;235.30;223.57;;;13.40;99.90;;;;;;5087837;28;20028;-79
2022/07/08 01:53:34;;;;;;;235.38;223.95;;;13.40;99.90;;;;;;5064604;28;20039;-79
2022/07/08 01:55:59;;;;;;;240.32;227.98;;;13.40;99.90;;;;;;5073813;28;20623;-84
2022/07/08 01:58:25;;;;;;;226.82;215.40;;;13.30;99.90;;;;;;5051584;28;20507;-79
2022/07/08 02:00:51;;;;;;;215.65;204.75;;;13.30;99.90;;;;;;5101950;28;20039;-79
2022/07/08 02:03:17;;;;;;;231.77;220.38;;;13.30;99.90;;;;;;5051751;28;20130;-79
2022/07/08 02:05:42;;;;;;;227.55;216.32;;;13.30;99.90;;;;;;5084064;28;20051;-79
2022/07/08 02:08:08;;;;;;;226.40;215.00;;;13.30;99.90;;;;;;5081621;28;20046;-80
2022/07/08 02:13:18;;;;;;;233.88;221.82;;;13.20;99.90;;;;;;5055365;28;20059;-79
2022/07/08 02:15:45;;;;;;;261.13;247.75;;;13.10;99.90;;;;;;5088184;28;20033;-79
2022/07/08 02:18:11;;;;;;;238.23;225.82;;;13.00;99.90;;;;;;5064751;28;20020;-80
2022/07/08 02:20:37;;;;;;;251.82;239.27;;;13.00;99.90;;;;;;5087453;28;20016;-79
2022/07/08 02:23:02;;;;;;;272.60;258.60;;;12.90;99.90;;;;;;5089366;28;20040;-79
2022/07/08 02:25:28;;;;;;;233.20;221.63;;;12.90;99.90;;;;;;5088246;28;20025;-79
2022/07/08 02:27:54;;;;;;;202.95;193.18;;;12.90;99.90;;;;;;5077650;28;20028;-79
2022/07/08 02:30:20;;;;;;;373.95;349.77;;;12.90;99.90;;;;;;5089041;28;20024;-80
2022/07/08 02:32:45;;;;;;;231.80;218.90;;;12.80;99.90;;;;;;5070415;28;20029;-79
2022/07/08 02:35:11;;;;;;;243.98;230.00;;;12.70;99.90;;;;;;5087470;28;20036;-79
2022/07/08 02:37:37;;;;;;;322.33;303.88;;;12.70;99.90;;;;;;5056795;28;20122;-79
2022/07/08 02:40:03;;;;;;;237.57;225.70;;;12.70;99.90;;;;;;5060830;28;20093;-84
2022/07/08 02:42:29;;;;;;;230.60;219.50;;;12.60;99.90;;;;;;5078260;28;20040;-80
2022/07/08 02:44:55;;;;;;;400.77;373.42;;;12.50;99.90;;;;;;5042569;28;20073;-79
2022/07/08 02:47:21;;;;;;;302.30;286.20;;;12.50;99.90;;;;;;5077550;28;20024;-79
2022/07/08 02:49:46;;;;;;;219.15;207.82;;;12.50;99.90;;;;;;5053438;28;20046;-78
2022/07/08 02:52:12;;;;;;;235.68;224.27;;;12.40;99.90;;;;;;5080526;28;20085;-79
2022/07/08 02:54:38;;;;;;;229.80;218.68;;;12.40;99.90;;;;;;5071255;28;20428;-80
2022/07/08 02:57:04;;;;;;;217.98;207.73;;;12.40;99.90;;;;;;5081869;28;20042;-79
2022/07/08 02:59:30;;;;;;;241.20;229.40;;;12.40;99.90;;;;;;5050479;28;20110;-79
2022/07/08 03:01:55;;;;;;;208.93;198.88;;;12.40;99.90;;;;;;5081305;28;20482;-79
2022/07/08 03:04:21;;;;;;;231.57;219.80;;;12.40;99.90;;;;;;5080018;28;20027;-79
2022/07/08 03:06:47;;;;;;;220.52;209.65;;;12.40;99.90;;;;;;5053217;28;20492;-87
2022/07/08 03:09:12;;;;;;;237.75;225.88;;;12.40;99.90;;;;;;5054709;28;20068;-79
2022/07/08 03:11:38;;;;;;;226.93;215.68;;;12.40;99.90;;;;;;5055437;28;20567;-79
2022/07/08 03:14:04;;;;;;;223.15;212.48;;;12.60;99.90;;;;;;5094305;28;20483;-79
2022/07/08 03:16:30;;;;;;;231.43;219.77;;;12.60;99.90;;;;;;5072807;28;20495;-79
2022/07/08 03:18:55;;;;;;;222.43;211.43;;;12.70;99.90;;;;;;5094053;28;20042;-82
2022/07/08 03:21:21;;;;;;;225.70;214.00;;;12.60;99.90;;;;;;5075593;28;20028;-79
2022/07/08 03:23:47;;;;;;;237.38;225.68;;;12.70;99.90;;;;;;5074382;28;20495;-80
2022/07/08 03:26:13;;;;;;;248.50;235.57;;;12.70;99.90;;;;;;5075808;28;20387;-79
2022/07/08 03:28:38;;;;;;;269.50;254.50;;;12.70;99.90;;;;;;5071097;28;20059;-79
2022/07/08 03:31:04;;;;;;;339.33;318.20;;;12.60;99.90;;;;;;5070735;28;20488;-80
2022/07/08 03:33:30;;;;;;;216.65;206.00;;;12.70;99.90;;;;;;5076070;28;20541;-79
2022/07/08 03:35:55;;;;;;;289.05;272.67;;;12.50;99.90;;;;;;5081008;28;20063;-78
2022/07/08 03:38:21;;;;;;;354.33;332.48;;;12.40;99.90;;;;;;5095749;28;20508;-79
2022/07/08 03:43:31;;;;;;;312.65;292.92;;;12.40;99.90;;;;;;5089738;28;20533;-79
2022/07/08 03:45:56;;;;;;;304.70;287.92;;;12.30;99.90;;;;;;5087207;28;20052;-79
2022/07/08 03:48:22;;;;;;;275.35;260.80;;;12.30;99.90;;;;;;5049756;28;20083;-80
2022/07/08 03:50:48;;;;;;;223.48;211.82;;;12.30;99.90;;;;;;5054767;28;20544;-79
2022/07/08 03:53:13;;;;;;;369.55;346.25;;;12.30;99.90;;;;;;5076090;28;20044;-80
2022/07/08 03:55:39;;;;;;;402.05;377.85;;;12.40;99.90;;;;;;5055409;28;20064;-80
2022/07/08 03:58:05;;;;;;;246.43;233.15;;;12.30;99.90;;;;;;5066211;28;20482;-79
2022/07/08 04:00:30;;;;;;;252.70;239.57;;;12.30;99.90;;;;;;5076704;28;20044;-79
2022/07/08 04:02:56;;;;;;;253.23;239.95;;;12.30;99.90;;;;;;5057161;28;20043;-79
2022/07/08 04:05:22;;;;;;;348.05;326.23;;;12.30;99.90;;;;;;5077543;28;20051;-79
2022/07/08 04:07:47;;;;;;;500.73;463.15;;;12.30;99.90;;;;;;5081838;28;20027;-79
2022/07/08 04:10:13;;;;;;;255.30;241.35;;;12.30;99.90;;;;;;5068692;28;20799;-79
2022/07/08 04:12:38;;;;;;;305.33;288.85;;;12.20;99.90;;;;;;5055078;28;20584;-81
2022/07/08 04:15:05;;;;;;;303.60;286.40;;;12.20;99.90;;;;;;5074750;28;20554;-79
2022/07/08 04:17:31;;;;;;;285.08;268.17;;;12.10;99.90;;;;;;5091549;28;20133;-79
2022/07/08 04:19:57;;;;;;;322.50;302.33;;;12.10;99.90;;;;;;5073541;28;20558;-79
2022/07/08 04:22:23;;;;;;;343.13;323.75;;;12.00;99.90;;;;;;5070641;28;20099;-79
2022/07/08 04:24:48;;;;;;;253.35;240.48;;;11.90;99.90;;;;;;5052698;28;20054;-80
2022/07/08 04:27:14;;;;;;;317.73;300.27;;;11.90;99.90;;;;;;5103588;28;20401;-81
2022/07/08 04:29:39;;;;;;;292.23;275.70;;;11.90;99.90;;;;;;5087367;28;20712;-79
2022/07/08 04:32:05;;;;;;;245.15;232.35;;;11.90;99.90;;;;;;5066326;28;20422;-80
2022/07/08 04:34:31;;;;;;;205.90;195.55;;;11.90;99.90;;;;;;5063006;28;20495;-80
2022/07/08 04:36:57;;;;;;;222.95;211.25;;;12.00;99.90;;;;;;5064382;28;20027;-79
2022/07/08 04:39:23;;;;;;;287.45;268.63;;;12.20;99.90;;;;;;5081756;28;20040;-80
2022/07/08 04:41:48;;;;;;;255.50;242.30;;;12.30;99.90;;;;;;5080646;28;20086;-79
2022/07/08 04:44:14;;;;;;;280.42;264.52;;;12.50;99.90;;;;;;5060406;28;20483;-78
2022/07/08 04:46:39;;;;;;;266.67;252.15;;;12.70;99.90;;;;;;5059329;28;20032;-79
2022/07/08 04:49:05;;;;;;;256.63;242.35;;;12.70;99.90;;;;;;5090520;28;20035;-78
2022/07/08 04:51:31;;;;;;;284.92;268.92;;;12.60;99.90;;;;;;5090623;28;20036;-79
2022/07/08 04:53:56;;;;;;;261.33;247.88;;;12.70;99.90;;;;;;5092177;28;20584;-80
2022/07/08 04:56:22;;;;;;;248.02;235.10;;;12.80;99.90;;;;;;5087849;28;20119;-79
2022/07/08 04:58:48;;;;;;;264.60;250.38;;;13.10;99.90;;;;;;5098978;28;20147;-78
2022/07/08 05:01:18;;;;;;;287.38;271.45;;;13.30;99.90;;;;;;5088051;28;20406;-79
2022/07/08 05:03:44;;;;;;;291.93;276.10;;;13.40;99.90;;;;;;5084192;28;20044;-81
2022/07/08 05:06:09;;;;;;;266.23;251.38;;;13.40;99.90;;;;;;5083000;28;20280;-79
2022/07/08 05:08:35;;;;;;;324.95;305.95;;;13.30;99.90;;;;;;5095988;28;20024;-79
2022/07/08 05:11:01;;;;;;;245.77;232.95;;;13.20;99.90;;;;;;5046797;28;20047;-79
2022/07/08 05:13:26;;;;;;;254.82;241.65;;;12.90;99.90;;;;;;5061405;28;20127;-78
2022/07/08 05:15:52;;;;;;;274.33;259.67;;;12.90;99.90;;;;;;5094953;28;20119;-80
2022/07/08 05:18:18;;;;;;;267.08;253.32;;;12.90;99.90;;;;;;5075334;28;20042;-78
2022/07/08 05:20:43;;;;;;;289.40;273.85;;;13.00;99.90;;;;;;5056446;28;20734;-78
2022/07/08 05:23:09;;;;;;;267.17;252.05;;;13.20;99.80;;;;;;5050886;28;20557;-75
2022/07/08 05:25:35;;;;;;;300.73;284.63;;;13.40;99.30;;;;;;5085258;28;20044;-74
2022/07/08 05:28:00;;;;;;;296.35;279.77;;;13.60;98.70;;;;;;5057015;28;20131;-79
2022/07/08 05:30:26;;;;;;;292.25;276.45;;;13.40;98.50;;;;;;5054988;28;20032;-74
2022/07/08 05:32:52;;;;;;;339.70;320.35;;;13.70;98.70;;;;;;5087562;28;20078;-74
2022/07/08 05:35:17;;;;;;;363.63;341.98;;;13.90;94.00;;;;;;5092869;28;20032;-74
2022/07/08 05:37:43;;;;;;;346.20;325.73;;;13.90;93.90;;;;;;5097197;28;20708;-73
2022/07/08 05:40:10;;;;;;;426.88;401.55;;;14.00;94.60;;;;;;5073639;28;20085;-74
2022/07/08 05:42:36;;;;;;;390.50;367.63;;;14.20;91.00;;;;;;5078225;28;20103;-78
2022/07/08 05:45:03;;;;;;;359.23;338.73;;;14.30;89.70;;;;;;5067427;28;20053;-78
2022/07/08 05:47:29;;;;;;;356.98;336.75;;;14.10;92.10;;;;;;5062908;28;20097;-78
2022/07/08 05:49:54;;;;;;;496.90;465.80;;;14.20;91.40;;;;;;5059184;28;20480;-78
2022/07/08 05:52:20;;;;;;;347.05;326.63;;;14.30;91.80;;;;;;5042138;28;20447;-85
2022/07/08 05:54:46;;;;;;;380.67;359.38;;;14.30;90.70;;;;;;5059521;28;20036;-78
2022/07/08 05:57:12;;;;;;;372.10;350.27;;;14.20;91.40;;;;;;5086691;28;20061;-78
2022/07/08 05:59:38;;;;;;;398.17;373.95;;;14.20;91.50;;;;;;5072598;28;20027;-78
2022/07/08 06:02:04;;;;;;;406.45;382.58;;;14.40;89.60;;;;;;5080823;28;20039;-78
2022/07/08 06:04:30;;;;;;;340.83;321.30;;;14.10;89.70;;;;;;5079132;28;20360;-79
2022/07/08 06:06:55;;;;;;;359.20;338.65;;;14.10;91.60;;;;;;5064944;28;20023;-78
2022/07/08 06:09:21;;;;;;;383.75;361.23;;;14.10;90.50;;;;;;5062929;28;20063;-78
2022/07/08 06:11:47;;;;;;;357.35;336.38;;;14.30;90.70;;;;;;5078029;28;20083;-78
2022/07/08 06:14:13;;;;;;;404.13;380.55;;;14.10;91.10;;;;;;5071096;28;20064;-78
2022/07/08 06:16:38;;;;;;;523.67;485.00;;;14.30;90.40;;;;;;5086162;28;20032;-79
2022/07/08 06:19:04;;;;;;;402.42;378.13;;;14.30;87.40;;;;;;5051246;28;20293;-78
2022/07/08 06:21:30;;;;;;;482.85;452.95;;;14.30;88.90;;;;;;5037437;28;20028;-78
2022/07/08 06:23:56;;;;;;;380.23;357.42;;;14.50;88.50;;;;;;5070137;28;20380;-79
2022/07/08 06:26:22;;;;;;;381.77;360.65;;;14.40;90.40;;;;;;5082887;28;20028;-78
2022/07/08 06:28:47;;;;;;;320.85;302.27;;;14.40;88.80;;;;;;5102394;28;20390;-79
2022/07/08 06:31:13;;;;;;;326.33;308.83;;;14.60;93.10;;;;;;5096247;28;20024;-78
2022/07/08 06:33:39;;;;;;;365.33;344.58;;;14.60;90.80;;;;;;5080617;28;20035;-78
2022/07/08 06:36:05;;;;;;;445.42;417.92;;;14.60;87.70;;;;;;5076950;28;20486;-78
2022/07/08 06:38:31;;;;;;;380.20;358.52;;;14.90;85.30;;;;;;5101386;28;20023;-78
2022/07/08 06:40:56;;;;;;;360.52;340.77;;;15.10;87.60;;;;;;5060071;28;20080;-78
2022/07/08 06:43:22;;;;;;;317.45;299.63;;;15.40;89.90;;;;;;5079773;28;20264;-79
2022/07/08 06:45:48;;;;;;;397.50;374.20;;;15.70;87.40;;;;;;5079409;28;20026;-78
2022/07/08 06:48:14;;;;;;;429.02;403.42;;;15.90;84.80;;;;;;5094507;28;20024;-78
2022/07/08 06:50:40;;;;;;;392.45;369.27;;;16.40;78.80;;;;;;5093241;28;20024;-78
2022/07/08 06:53:06;;;;;;;423.42;397.80;;;16.40;80.80;;;;;;5075094;28;20099;-77
2022/07/08 06:55:31;;;;;;;667.70;617.72;;;16.10;77.50;;;;;;5079987;28;20023;-78
2022/07/08 06:57:58;;;;;;;419.80;394.73;;;15.90;75.60;;;;;;5109103;28;20106;-79
2022/07/08 07:00:23;;;;;;;464.00;436.02;;;15.80;77.20;;;;;;5082744;28;20498;-79
2022/07/08 07:02:50;;;;;;;479.83;447.50;;;16.10;75.80;;;;;;5082224;28;20035;-78
2022/07/08 07:05:16;;;;;;;676.28;626.53;;;15.90;74.00;;;;;;5081495;28;20020;-78
2022/07/08 07:07:41;;;;;;;592.78;551.30;;;16.10;73.30;;;;;;5075759;28;20502;-78
2022/07/08 07:10:07;;;;;;;456.52;428.25;;;16.30;73.00;;;;;;5080566;28;20081;-78
2022/07/08 07:12:33;;;;;;;352.35;332.80;;;16.70;74.50;;;;;;5097111;28;20055;-78
2022/07/08 07:14:59;;;;;;;404.95;381.17;;;17.00;80.90;;;;;;5077321;28;20039;-82
2022/07/08 07:17:24;;;;;;;454.65;425.25;;;17.20;75.80;;;;;;5060167;28;20675;-79
2022/07/08 07:19:50;;;;;;;398.42;375.55;;;16.90;69.80;;;;;;5097444;28;20112;-78
2022/07/08 07:22:16;;;;;;;422.33;395.45;;;17.40;71.80;;;;;;5078329;28;20509;-78
2022/07/08 07:24:43;;;;;;;544.15;506.13;;;17.60;68.30;;;;;;5099934;28;20054;-79
2022/07/08 07:27:08;;;;;;;400.88;378.52;;;17.60;67.80;;;;;;5080169;28;20028;-79
2022/07/08 07:29:34;;;;;;;638.17;590.03;;;17.10;69.40;;;;;;5081977;28;20142;-79
2022/07/08 07:32:00;;;;;;;542.38;501.90;;;17.20;67.90;;;;;;5084240;28;20277;-79
2022/07/08 07:34:26;;;;;;;657.75;604.05;;;16.80;67.80;;;;;;5100313;28;20513;-76
2022/07/08 07:36:52;;;;;;;560.80;520.75;;;16.70;68.50;;;;;;5100997;28;20048;-79
2022/07/08 07:39:18;;;;;;;437.25;409.35;;;16.50;71.10;;;;;;5059702;28;20449;-79
2022/07/08 07:41:43;;;;;;;583.70;542.35;;;16.20;73.20;;;;;;5061210;28;20445;-79
2022/07/08 07:44:09;;;;;;;471.63;441.15;;;16.30;72.00;;;;;;5060715;28;20147;-78
2022/07/08 07:46:35;;;;;;;589.15;547.90;;;16.50;73.80;;;;;;5076116;28;20030;-78
2022/07/08 07:49:01;;;;;;;523.67;487.30;;;16.60;72.80;;;;;;5056167;28;20483;-78
2022/07/08 07:51:28;;;;;;;439.45;412.73;;;16.80;72.00;;;;;;5074046;28;20073;-79
2022/07/08 07:53:54;;;;;;;475.85;445.65;;;16.80;70.40;;;;;;5068307;28;20038;-79
2022/07/08 07:56:20;;;;;;;486.52;454.73;;;17.00;69.70;;;;;;5086672;28;20799;-78
2022/07/08 07:58:46;;;;;;;486.00;454.80;;;17.00;67.00;;;;;;5089572;28;20031;-78
2022/07/08 08:01:11;;;;;;;312.45;295.92;;;17.20;69.50;;;;;;5085054;28;20036;-79
2022/07/08 08:03:37;;;;;;;553.42;513.90;;;17.50;75.60;;;;;;5082651;28;20650;-78
2022/07/08 08:06:04;;;;;;;384.67;362.02;;;17.60;68.90;;;;;;5079957;28;20119;-78
2022/07/08 08:08:31;;;;;;;520.97;487.75;;;17.60;70.70;;;;;;5091543;28;20027;-78
2022/07/08 08:10:57;;;;;;;431.13;404.60;;;17.80;67.40;;;;;;5097343;28;20093;-78
2022/07/08 08:13:23;;;;;;;533.53;496.88;;;18.20;67.20;;;;;;5100265;28;20051;-78
2022/07/08 08:15:48;;;;;;;319.73;302.10;;;18.10;64.00;;;;;;5075703;28;20570;-79
2022/07/08 08:18:14;;;;;;;469.42;440.75;;;17.70;69.80;;;;;;5056659;28;20040;-77
2022/07/08 08:20:40;;;;;;;628.20;579.70;;;18.20;65.50;;;;;;5072021;28;20067;-79
2022/07/08 08:23:07;;;;;;;500.38;465.25;;;18.30;64.50;;;;;;5069457;28;20033;-78
2022/07/08 08:25:34;;;;;;;478.42;446.75;;;18.70;61.40;;;;;;5096731;28;20114;-78
2022/07/08 08:28:00;;;;;;;515.97;479.40;;;19.10;61.40;;;;;;5084964;28;20027;-77
2022/07/08 08:30:25;;;;;;;481.73;451.63;;;19.10;60.90;;;;;;5080012;28;20031;-78
2022/07/08 08:32:51;;;;;;;432.42;406.02;;;18.80;58.90;;;;;;5063752;28;20035;-79
2022/07/08 08:35:17;;;;;;;646.60;596.97;;;18.70;63.50;;;;;;5081219;28;20560;-78
2022/07/08 08:37:43;;;;;;;415.38;389.65;;;19.00;59.20;;;;;;5081858;28;20146;-78
2022/07/08 08:40:10;;;;;;;523.47;486.90;;;18.40;60.70;;;;;;5076394;28;20403;-79
2022/07/08 08:42:37;;;;;;;631.53;583.30;;;18.10;61.40;;;;;;5075109;28;20028;-78
2022/07/08 08:45:04;;;;;;;418.85;393.92;;;18.30;61.80;;;;;;5094584;28;20092;-79
2022/07/08 08:47:32;;;;;;;392.25;369.25;;;19.00;62.10;;;;;;5095175;28;20035;-78
2022/07/08 08:50:53;;;;;;;519.40;485.73;;;19.10;62.10;;;;;;5075485;28;20027;-79
2022/07/08 08:52:49;;;;;;;448.77;415.65;;;19.60;56.90;;;;;;5088792;28;20036;-79
2022/07/08 08:55:33;;;;;;;362.88;340.95;;;19.40;59.60;;;;;;5080007;28;20065;-78
2022/07/08 08:58:03;;;;;;;470.73;438.52;;;19.40;61.30;;;;;;5101889;28;20016;-84
2022/07/08 09:00:30;;;;;;;586.80;538.58;;;19.50;58.00;;;;;;5081503;28;20027;-78
2022/07/08 09:02:57;;;;;;;419.08;391.38;;;19.80;56.70;;;;;;5081982;28;20080;-79
2022/07/08 09:05:24;;;;;;;715.05;642.97;;;19.20;58.20;;;;;;5060466;28;20051;-78
2022/07/08 09:07:50;;;;;;;493.02;460.67;;;18.70;59.20;;;;;;5059839;28;20061;-78
2022/07/08 09:10:17;;;;;;;428.70;401.67;;;17.70;62.10;;;;;;5075410;28;20114;-79
2022/07/08 09:13:03;;;;;;;402.77;377.55;;;18.00;61.10;;;;;;5071152;28;20131;-78
2022/07/08 09:15:38;;;;;;;418.00;392.83;;;18.80;61.50;;;;;;5092816;28;20035;-78
2022/07/08 09:18:07;;;;;;;323.98;304.55;;;19.50;63.00;;;;;;5054386;28;20032;-78
2022/07/08 09:20:53;;;;;;;376.38;355.20;;;19.40;68.50;;;;;;5067199;28;20455;-78
2022/07/08 09:23:21;;;;;;;536.13;490.08;;;19.60;57.80;;;;;;5084921;28;20028;-79
2022/07/08 09:25:53;;;;;;;455.38;427.25;;;19.50;55.30;;;;;;5081033;28;20114;-78
2022/07/08 09:28:31;;;;;;;461.75;432.73;;;19.30;58.50;;;;;;5079863;28;20027;-78
2022/07/08 09:30:58;;;;;;;422.15;397.13;;;19.70;56.10;;;;;;5079687;28;20092;-79
2022/07/08 09:33:27;;;;;;;567.17;528.03;;;19.20;57.00;;;;;;5083019;28;20043;-87
2022/07/08 09:35:55;;;;;;;517.63;482.27;;;19.20;55.80;;;;;;5064623;28;20385;-78
2022/07/08 09:38:22;;;;;;;427.00;400.75;;;18.90;57.00;;;;;;5075272;28;20036;-79
2022/07/08 09:41:04;;;;;;;540.63;502.33;;;18.80;57.70;;;;;;5095993;28;20075;-78
2022/07/08 09:43:31;;;;;;;355.75;334.38;;;19.30;59.10;;;;;;5076774;28;20054;-79
2022/07/08 09:46:05;;;;;;;512.28;475.65;;;20.40;59.70;;;;;;5075485;28;20474;-78
2022/07/08 09:48:31;;;;;;;464.40;434.83;;;20.30;51.90;;;;;;5090443;28;20463;-78
2022/07/08 09:50:59;;;;;;;517.33;482.67;;;19.80;55.20;;;;;;5071412;28;20546;-79
2022/07/08 09:53:28;;;;;;;485.83;453.80;;;20.00;51.40;;;;;;5035510;28;20319;-78
2022/07/08 09:55:56;;;;;;;488.75;456.75;;;19.40;55.00;;;;;;5078676;28;20057;-80
2022/07/08 09:58:28;;;;;;;570.90;530.53;;;19.10;54.80;;;;;;5079275;28;20509;-79
2022/07/08 10:00:55;;;;;;;477.15;445.35;;;19.20;53.20;;;;;;5078061;28;20040;-79
2022/07/08 10:03:22;;;;;;;781.65;713.58;;;19.10;54.60;;;;;;5079811;28;20131;-79
2022/07/08 10:05:48;;;;;;;323.60;304.88;;;20.30;51.80;;;;;;5077820;28;20138;-79
2022/07/08 10:08:15;;;;;;;500.02;468.45;;;21.00;54.50;;;;;;5094915;28;20547;-79
2022/07/08 10:10:43;;;;;;;592.83;549.28;;;21.60;50.40;;;;;;5061053;28;20028;-80
2022/07/08 10:13:09;;;;;;;797.88;723.67;;;20.30;50.40;;;;;;5087206;28;20105;-80
2022/07/08 10:15:36;;;;;;;576.40;534.72;;;19.40;50.50;;;;;;5092502;28;20536;-80
2022/07/08 10:18:08;;;;;;;541.75;503.70;;;19.20;51.70;;;;;;5071139;28;20031;-79
2022/07/08 10:20:36;;;;;;;584.47;543.28;;;18.70;54.10;;;;;;5069224;28;20123;-78
2022/07/08 10:23:08;;;;;;;950.10;790.10;;;18.60;54.40;;;;;;5067315;28;20042;-79
2022/07/08 10:25:34;;;;;;;589.92;547.85;;;20.10;48.90;;;;;;5083474;28;20023;-78
2022/07/08 10:28:07;;;;;;;476.60;446.42;;;20.80;45.00;;;;;;5086142;28;20585;-79
2022/07/08 10:31:03;;;;;;;391.52;368.00;;;21.30;53.70;;;;;;5096239;28;20039;-83
2022/07/08 10:33:30;;;;;;;538.67;500.23;;;21.90;46.90;;;;;;5077449;28;20035;-78
2022/07/08 10:36:06;;;;;;;554.17;516.20;;;21.10;47.40;;;;;;5078763;28;20032;-79
2022/07/08 10:38:39;;;;;;;548.08;510.75;;;20.00;47.60;;;;;;5075932;28;20046;-79
2022/07/08 10:41:13;;;;;;;555.50;517.65;;;19.20;49.70;;;;;;5075324;28;20035;-80
2022/07/08 10:43:53;;;;;;;567.97;527.67;;;19.00;51.60;;;;;;5092250;28;20020;-79
2022/07/08 10:46:20;;;;;;;533.92;496.17;;;20.20;50.20;;;;;;5069268;28;20445;-78
2022/07/08 10:48:56;;;;;;;383.48;360.02;;;20.90;51.10;;;;;;5071564;28;20028;-78
2022/07/08 10:51:24;;;;;;;562.25;523.78;;;21.80;52.10;;;;;;5087334;28;20495;-79
2022/07/08 10:54:02;;;;;;;606.22;561.90;;;21.40;44.00;;;;;;5077672;28;20027;-79
2022/07/08 10:56:48;;;;;;;837.22;748.05;;;22.00;44.80;;;;;;5080548;28;20512;-79
2022/07/08 10:59:31;;;;;;;780.22;717.05;;;21.10;39.80;;;;;;5098419;28;20055;-79
2022/07/08 11:02:03;;;;;;;542.75;505.13;;;21.00;42.50;;;;;;5076839;28;20124;-78
2022/07/08 11:04:35;;;;;;;933.42;835.92;;;22.00;45.10;;;;;;5081126;28;20027;-78
2022/07/08 11:07:28;;;;;;;1297.60;645.63;;;22.50;41.20;;;;;;5079609;28;20080;-80
2022/07/08 11:10:09;;;;;;;977.78;793.33;;;21.70;40.60;;;;;;5073918;28;20044;-79
2022/07/08 11:12:36;;;;;;;;;;;20.90;41.70;;;;;;5090131;28;20497;-79
2022/07/08 11:15:05;;;;;;;919.35;825.72;;;21.40;40.90;;;;;;5072591;28;20526;-78
2022/07/08 11:17:33;;;;;;;711.00;658.83;;;21.90;40.60;;;;;;5054853;28;20508;-78
2022/07/08 11:20:01;;;;;;;1999.90;999.90;;;23.10;39.60;;;;;;5070398;28;20088;-78
2022/07/08 11:22:31;;;;;;;1999.90;999.90;;;23.40;41.20;;;;;;5051995;28;20060;-79
2022/07/08 11:24:57;;;;;;;1999.90;999.90;;;23.70;41.70;;;;;;5085707;28;20101;-79
2022/07/08 11:27:25;;;;;;;1999.90;999.90;;;24.20;35.00;;;;;;5100125;28;20062;-79
2022/07/08 11:29:53;;;;;;;1999.90;999.90;;;23.00;37.00;;;;;;5087889;28;20028;-79
2022/07/08 11:32:20;;;;;;;1999.90;999.90;;;23.50;37.50;;;;;;5085998;28;20496;-79
2022/07/08 11:34:47;;;;;;;1999.90;999.90;;;23.40;35.70;;;;;;5082545;28;20031;-79
2022/07/08 11:37:13;;;;;;;1999.90;999.90;;;24.80;34.70;;;;;;5079923;28;20268;-79
2022/07/08 11:39:40;;;;;;;1999.90;999.90;;;24.30;31.80;;;;;;5080751;28;20031;-78
2022/07/08 11:42:07;;;;;;;1999.90;999.90;;;23.80;34.80;;;;;;5077445;28;20517;-78
2022/07/08 11:44:33;;;;;;;1999.90;999.90;;;23.30;36.30;;;;;;5093751;28;20124;-80
2022/07/08 11:46:59;;;;;;;1999.90;999.90;;;22.90;37.30;;;;;;5058538;28;20510;-78
2022/07/08 11:49:25;;;;;;;1999.90;999.90;;;21.60;38.20;;;;;;5089746;28;20257;-78
2022/07/08 11:51:55;;;;;;;1999.90;999.90;;;21.10;40.00;;;;;;5090394;28;20016;-79
2022/07/08 11:54:23;;;;;;;1999.90;999.90;;;21.60;39.40;;;;;;5102515;28;20095;-79
2022/07/08 11:56:53;;;;;;;1999.90;999.90;;;23.30;38.90;;;;;;5082390;28;20020;-79
2022/07/08 11:59:27;;;;;;;1999.90;999.90;;;24.90;32.40;;;;;;5103008;28;20073;-79
2022/07/08 12:01:54;;;;;;;1463.72;498.45;;;25.90;32.50;;;;;;5080568;28;20504;-80
2022/07/08 12:04:20;;;;;;;1999.90;999.90;;;25.90;29.10;;;;;;5079124;28;20185;-79
2022/07/08 12:06:51;;;;;;;1999.90;999.90;;;25.90;30.00;;;;;;5077565;28;20025;-79
2022/07/08 12:09:18;;;;;;;1999.90;999.90;;;24.60;31.20;;;;;;5098966;28;20667;-79
2022/07/08 12:11:50;;;;;;;1999.90;999.90;;;25.00;31.00;;;;;;5078979;28;20440;-79
2022/07/08 12:14:16;;;;;;;1707.75;682.67;;;25.00;29.30;;;;;;5089515;28;20079;-79